Time;durP1;ratioP1;P1;durP2;ratioP2;P2;SDS_P1;SDS_P2;PMS_P1;PMS_P2;Temp;Humidity;BMP_temperature;BMP_pressure;BME280_temperature;BME280_humidity;BME280_pressure;Samples;Min_cycle;Max_cycle;Signal;HPM_P1;HPM_P2
2023/10/14 00:01:31;;;;;;;10.05;3.38;;;;;;;20.70;54.98;96560.94;5037543;28;20055;-64
2023/10/14 00:03:57;;;;;;;7.63;3.17;;;;;;;20.59;55.74;96575.13;5032917;28;20045;-65
2023/10/14 00:06:25;;;;;;;7.78;3.97;;;;;;;20.54;56.09;96575.34;5037512;28;20120;-68
2023/10/14 00:08:56;;;;;;;6.10;3.50;;;;;;;20.57;56.43;96573.84;5040950;28;20073;-64
2023/10/14 00:11:23;;;;;;;7.47;4.00;;;;;;;20.49;56.79;96579.09;5040881;28;20052;-65
2023/10/14 00:13:52;;;;;;;8.75;3.38;;;;;;;20.45;57.42;96572.66;5039327;28;20461;-65
2023/10/14 00:16:35;;;;;;;7.55;3.35;;;;;;;20.33;58.26;96575.34;5044483;28;20526;-68
2023/10/14 00:19:12;;;;;;;6.55;3.80;;;;;;;20.27;58.56;96583.00;5048743;28;20466;-67
2023/10/14 00:21:39;;;;;;;10.80;3.58;;;;;;;20.28;58.66;96577.16;5041222;28;20041;-66
2023/10/14 00:24:06;;;;;;;7.00;3.30;;;;;;;20.24;59.26;96575.41;5036147;28;20049;-68
2023/10/14 00:26:34;;;;;;;7.20;3.47;;;;;;;20.12;60.09;96565.97;5035889;28;20064;-67
2023/10/14 00:29:19;;;;;;;6.75;3.67;;;;;;;20.04;60.87;96571.53;5042887;28;20040;-67
2023/10/14 00:31:50;;;;;;;6.38;3.13;;;;;;;19.99;61.22;96564.28;5044796;28;20040;-67
2023/10/14 00:34:29;;;;;;;6.18;3.75;;;;;;;19.94;61.98;96557.00;5034785;28;20029;-66
2023/10/14 00:36:56;;;;;;;8.10;3.95;;;;;;;19.87;62.41;96554.78;5035837;28;20385;-66
2023/10/14 00:39:26;;;;;;;7.38;3.67;;;;;;;19.89;62.50;96546.22;5034380;28;20036;-69
2023/10/14 00:41:54;;;;;;;7.18;3.88;;;;;;;19.88;63.10;96534.44;5043449;28;20036;-67
2023/10/14 00:44:25;;;;;;;9.98;4.50;;;;;;;19.82;63.38;96537.69;5046496;28;20051;-65
2023/10/14 00:46:54;;;;;;;7.50;3.78;;;;;;;19.79;63.70;96533.66;5035137;28;20179;-65
2023/10/14 00:49:23;;;;;;;10.93;4.65;;;;;;;19.77;63.84;96533.22;5045016;28;20028;-68
2023/10/14 00:51:58;;;;;;;7.28;3.75;;;;;;;19.87;63.38;96529.28;5034235;28;20064;-66
2023/10/14 00:54:36;;;;;;;8.50;4.03;;;;;;;19.73;64.13;96538.56;5026213;28;20047;-65
2023/10/14 00:57:38;;;;;;;8.55;4.10;;;;;;;19.63;64.20;96534.28;5035138;28;20045;-67
2023/10/14 00:59:56;;;;;;;9.65;3.22;;;;;;;19.66;63.45;96524.56;5039944;28;20068;-66
2023/10/14 01:02:33;;;;;;;7.53;4.10;;;;;;;19.60;64.21;96532.19;5040426;28;20041;-68
2023/10/14 01:05:07;;;;;;;6.75;3.40;;;;;;;19.60;63.83;96534.09;5039396;28;20120;-65
2023/10/14 01:07:34;;;;;;;5.85;3.17;;;;;;;19.55;64.17;96517.84;5031755;28;20087;-67
2023/10/14 01:10:01;;;;;;;8.43;3.75;;;;;;;19.44;64.26;96522.91;5021115;28;20044;-66
2023/10/14 01:12:38;;;;;;;6.88;3.55;;;;;;;19.43;64.21;96521.31;5049577;28;20679;-67
2023/10/14 01:15:13;;;;;;;10.13;4.00;;;;;;;19.41;64.59;96532.59;5038209;28;20484;-69
2023/10/14 01:17:42;;;;;;;7.85;3.72;;;;;;;19.29;65.15;96536.06;5036156;28;20040;-68
2023/10/14 01:20:35;;;;;;;5.78;3.60;;;;;;;19.22;65.72;96522.84;5041481;28;20448;-67
2023/10/14 01:22:58;;;;;;;6.90;4.07;;;;;;;19.16;66.66;96528.84;5035479;28;20102;-69
2023/10/14 01:25:31;;;;;;;6.45;4.35;;;;;;;19.10;67.38;96522.75;5033419;28;20037;-64
2023/10/14 01:27:59;;;;;;;8.52;3.63;;;;;;;19.06;67.53;96528.06;5038369;28;20045;-66
2023/10/14 01:30:26;;;;;;;9.93;3.70;;;;;;;19.09;68.16;96537.59;5039684;28;20037;-68
2023/10/14 01:33:16;;;;;;;7.95;4.20;;;;;;;19.07;68.82;96526.94;5046722;28;20132;-67
2023/10/14 01:35:45;;;;;;;6.13;3.97;;;;;;;19.04;69.37;96524.81;5040840;28;20033;-67
2023/10/14 01:38:11;;;;;;;7.45;4.30;;;;;;;19.06;69.78;96524.53;5034332;28;20029;-66
2023/10/14 01:40:40;;;;;;;7.15;4.13;;;;;;;19.02;70.32;96520.81;5046082;28;20040;-69
2023/10/14 01:43:08;;;;;;;9.18;3.95;;;;;;;18.98;70.57;96526.13;5044021;28;20051;-67
2023/10/14 01:45:41;;;;;;;9.75;5.45;;;;;;;18.94;71.33;96517.75;5048552;28;20060;-66
2023/10/14 01:50:46;;;;;;;9.60;4.35;;;;;;;18.90;72.23;96527.78;5039210;28;20141;-66
2023/10/14 01:53:27;;;;;;;11.55;5.57;;;;;;;18.82;73.01;96523.13;5038450;28;20040;-68
2023/10/14 01:55:58;;;;;;;8.15;4.38;;;;;;;18.78;73.51;96513.94;5038966;28;20132;-66
2023/10/14 01:58:30;;;;;;;7.80;4.72;;;;;;;18.76;73.67;96514.25;5042518;28;20104;-67
2023/10/14 02:03:43;;;;;;;9.77;4.43;;;;;;;18.68;74.94;96507.69;5050045;28;20048;-66
2023/10/14 02:06:16;;;;;;;12.13;5.22;;;;;;;18.74;74.81;96497.34;5041614;28;20044;-66
2023/10/14 02:08:44;;;;;;;8.88;4.70;;;;;;;18.62;75.55;96497.22;5041303;28;20412;-67
2023/10/14 02:11:11;;;;;;;7.93;4.93;;;;;;;18.62;76.11;96494.47;5040217;28;20536;-66
2023/10/14 02:13:38;;;;;;;7.43;4.60;;;;;;;18.59;76.60;96485.78;5039873;28;20044;-66
2023/10/14 02:16:07;;;;;;;7.30;4.53;;;;;;;18.54;77.24;96483.19;5045416;28;20044;-67
2023/10/14 02:18:36;;;;;;;7.15;4.53;;;;;;;18.50;77.99;96497.88;5040507;28;20060;-66
2023/10/14 02:21:16;;;;;;;13.57;4.97;;;;;;;18.40;79.00;96482.59;5033746;28;20512;-66
2023/10/14 02:23:49;;;;;;;8.32;4.18;;;;;;;18.35;79.56;96490.97;5038853;28;20531;-67
2023/10/14 02:26:22;;;;;;;10.93;5.03;;;;;;;18.34;79.59;96479.22;5036519;28;20056;-65
2023/10/14 02:28:52;;;;;;;6.75;4.50;;;;;;;18.36;79.75;96478.88;5031977;28;20057;-69
2023/10/14 02:33:54;;;;;;;7.88;4.30;;;;;;;18.36;80.27;96473.41;5039506;28;20032;-65
2023/10/14 02:36:21;;;;;;;8.07;4.88;;;;;;;18.36;80.35;96462.44;5046325;28;20651;-68
2023/10/14 02:38:56;;;;;;;7.63;4.70;;;;;;;18.31;80.86;96469.69;5048942;28;20041;-65
2023/10/14 02:41:26;;;;;;;8.13;5.32;;;;;;;18.29;81.13;96466.50;5038427;28;20056;-65
2023/10/14 02:44:01;;;;;;;8.18;4.68;;;;;;;18.30;81.37;96461.81;5042112;28;20306;-65
2023/10/14 02:46:27;;;;;;;8.35;4.68;;;;;;;18.31;81.19;96463.41;5037402;28;20046;-67
2023/10/14 02:48:54;;;;;;;5.57;3.80;;;;;;;18.27;81.92;96463.25;5045333;28;20045;-65
2023/10/14 02:51:41;;;;;;;10.38;5.10;;;;;;;18.20;82.50;96465.69;5042297;28;20033;-65
2023/10/14 02:54:15;;;;;;;8.57;4.80;;;;;;;18.25;82.28;96471.00;5036527;28;20470;-63
2023/10/14 02:59:19;;;;;;;9.38;4.18;;;;;;;18.29;81.70;96460.19;5031825;28;20073;-66
2023/10/14 03:04:40;;;;;;;9.95;4.63;;;;;;;18.32;81.53;96460.34;5043296;28;20053;-65
2023/10/14 03:07:08;;;;;;;8.70;5.28;;;;;;;18.32;81.88;96451.34;5042919;28;20113;-66
2023/10/14 03:09:35;;;;;;;9.68;5.60;;;;;;;18.38;81.60;96451.94;5030039;28;20635;-65
2023/10/14 03:12:01;;;;;;;7.97;5.00;;;;;;;18.41;81.54;96448.56;5041783;28;20047;-66
2023/10/14 03:14:28;;;;;;;8.80;4.90;;;;;;;18.38;81.71;96454.69;5038918;28;20064;-67
2023/10/14 03:16:55;;;;;;;8.43;4.35;;;;;;;18.41;81.56;96445.81;5042438;28;20045;-67
2023/10/14 03:19:25;;;;;;;9.40;5.25;;;;;;;18.38;81.49;96452.75;5040738;28;20413;-65
2023/10/14 03:22:00;;;;;;;9.48;4.85;;;;;;;18.38;81.68;96441.81;5033406;28;20124;-69
2023/10/14 03:24:30;;;;;;;8.88;6.35;;;;;;;18.40;81.37;96433.25;5039711;28;20037;-64
2023/10/14 03:27:04;;;;;;;8.55;4.35;;;;;;;18.36;81.77;96443.25;5031521;28;20124;-65
2023/10/14 03:29:31;;;;;;;11.32;5.32;;;;;;;18.41;81.37;96443.09;5043162;28;20045;-66
2023/10/14 03:31:57;;;;;;;9.05;4.38;;;;;;;18.44;81.20;96451.47;5039981;28;20065;-67
2023/10/14 03:34:30;;;;;;;7.55;4.25;;;;;;;18.43;81.31;96451.78;5043567;28;20077;-67
2023/10/14 03:37:00;;;;;;;7.68;4.40;;;;;;;18.50;80.97;96454.03;5031858;28;20048;-69
2023/10/14 03:39:46;;;;;;;10.68;4.95;;;;;;;18.45;81.03;96447.59;5039679;28;20136;-67
2023/10/14 03:42:16;;;;;;;11.77;4.82;;;;;;;18.51;80.46;96441.94;5041245;28;20111;-67
2023/10/14 03:44:43;;;;;;;12.27;4.72;;;;;;;18.57;79.66;96437.88;5042620;28;20041;-66
2023/10/14 03:47:16;;;;;;;9.98;5.30;;;;;;;18.62;79.28;96431.41;5043758;28;20045;-67
2023/10/14 03:49:43;;;;;;;9.65;5.18;;;;;;;18.74;78.46;96436.19;5036794;28;20040;-67
2023/10/14 03:52:12;;;;;;;9.60;5.22;;;;;;;18.77;78.09;96441.84;5040078;28;20053;-66
2023/10/14 03:54:42;;;;;;;9.07;5.03;;;;;;;18.78;79.05;96448.13;5035049;28;20037;-66
2023/10/14 03:57:17;;;;;;;8.85;4.68;;;;;;;18.85;79.79;96486.81;5040067;28;20045;-68
2023/10/14 03:59:47;;;;;;;10.55;4.90;;;;;;;18.77;84.42;96496.69;5034013;28;20504;-67
2023/10/14 04:02:25;;;;;;;15.73;5.80;;;;;;;18.32;91.86;96536.28;5036099;28;20095;-66
2023/10/14 04:05:01;;;;;;;16.50;6.40;;;;;;;17.64;100.00;96545.69;5038512;28;20045;-66
2023/10/14 04:07:28;;;;;;;11.38;4.55;;;;;;;16.81;100.00;96542.44;5037565;28;20052;-66
2023/10/14 04:09:58;;;;;;;7.38;3.40;;;;;;;15.94;100.00;96544.22;5053163;28;20597;-67
2023/10/14 04:12:53;;;;;;;7.00;3.63;;;;;;;15.63;100.00;96551.16;5050814;28;20531;-68
2023/10/14 04:15:33;;;;;;;6.05;2.70;;;;;;;15.34;100.00;96560.47;5046240;28;20120;-68
2023/10/14 04:18:11;;;;;;;6.60;3.40;;;;;;;15.08;100.00;96572.66;5033077;28;20060;-65
2023/10/14 04:20:39;;;;;;;7.43;2.70;;;;;;;15.04;100.00;96571.63;5043946;28;20044;-66
2023/10/14 04:23:18;;;;;;;6.15;2.67;;;;;;;15.04;100.00;96554.50;5038059;28;20124;-67
2023/10/14 04:25:56;;;;;;;7.88;3.30;;;;;;;15.17;100.00;96586.41;5042564;28;20525;-67
2023/10/14 04:28:30;;;;;;;5.90;2.85;;;;;;;15.24;100.00;96569.66;5039084;28;20120;-67
2023/10/14 04:31:06;;;;;;;4.88;2.38;;;;;;;15.31;100.00;96575.53;5041016;28;20099;-65
2023/10/14 04:33:36;;;;;;;5.88;2.45;;;;;;;15.27;100.00;96568.22;5044678;28;20037;-65
2023/10/14 04:36:37;;;;;;;6.22;2.55;;;;;;;15.29;100.00;96568.75;5035786;28;20037;-64
2023/10/14 04:39:07;;;;;;;6.93;2.53;;;;;;;15.34;100.00;96569.44;5032300;28;20486;-65
2023/10/14 04:41:45;;;;;;;11.02;3.00;;;;;;;15.33;100.00;96567.84;5044531;28;20040;-65
2023/10/14 04:44:12;;;;;;;5.35;2.70;;;;;;;15.48;100.00;96577.63;5036980;28;20033;-64
2023/10/14 04:46:46;;;;;;;5.20;2.70;;;;;;;15.43;100.00;96576.91;5048552;28;20403;-63
2023/10/14 04:49:16;;;;;;;6.38;2.95;;;;;;;15.44;100.00;96568.44;5039624;28;20063;-64
2023/10/14 04:51:45;;;;;;;5.18;2.58;;;;;;;15.39;100.00;96571.28;5035114;28;20037;-65
2023/10/14 04:54:19;;;;;;;5.43;2.80;;;;;;;15.29;100.00;96571.47;5040140;28;21243;-62
2023/10/14 04:56:47;;;;;;;7.70;2.85;;;;;;;15.28;100.00;96573.38;5031849;28;20045;-63
2023/10/14 04:59:19;;;;;;;7.72;3.30;;;;;;;15.26;100.00;96569.34;5040757;28;20056;-67
2023/10/14 05:01:48;;;;;;;6.00;3.33;;;;;;;15.21;100.00;96570.25;5028937;28;20038;-64
2023/10/14 05:04:19;;;;;;;6.45;3.30;;;;;;;15.33;100.00;96569.75;5041180;28;20041;-64
2023/10/14 05:06:46;;;;;;;;;;;;;;;15.41;100.00;96571.75;5034970;28;20129;-65
2023/10/14 05:09:29;;;;;;;10.35;3.40;;;;;;;15.40;100.00;96581.06;5039097;28;19929;-64
2023/10/14 05:11:57;;;;;;;7.50;3.75;;;;;;;15.42;100.00;96569.84;5031825;28;20107;-66
2023/10/14 05:14:34;;;;;;;7.20;3.53;;;;;;;15.43;100.00;96571.47;5043238;28;20048;-65
2023/10/14 05:17:19;;;;;;;7.22;3.63;;;;;;;15.47;100.00;96581.47;5037737;28;20700;-65
2023/10/14 05:19:47;;;;;;;7.35;3.53;;;;;;;15.56;100.00;96597.94;5045668;28;20037;-65
2023/10/14 05:24:48;;;;;;;7.35;3.13;;;;;;;15.75;100.00;96594.28;5037714;28;20110;-65
2023/10/14 05:27:17;;;;;;;7.35;3.03;;;;;;;15.68;100.00;96594.72;5040155;28;20037;-64
2023/10/14 05:30:06;;;;;;;6.70;3.20;;;;;;;15.64;100.00;96603.78;5042362;28;20038;-64
2023/10/14 05:32:36;;;;;;;8.57;3.00;;;;;;;15.65;100.00;96597.22;5043552;28;20045;-64
2023/10/14 05:35:09;;;;;;;6.30;3.08;;;;;;;15.52;100.00;96602.38;5037236;28;20049;-67
2023/10/14 05:37:41;;;;;;;9.65;3.22;;;;;;;15.56;100.00;96605.31;5040889;28;20041;-65
2023/10/14 05:40:15;;;;;;;7.53;3.00;;;;;;;15.63;100.00;96610.38;5031585;28;20044;-66
2023/10/14 05:42:46;;;;;;;6.95;2.90;;;;;;;15.69;100.00;96617.31;5032912;28;20114;-67
2023/10/14 05:45:12;;;;;;;6.50;2.50;;;;;;;15.77;100.00;96618.56;5039454;28;20049;-68
2023/10/14 05:47:41;;;;;;;6.50;2.45;;;;;;;15.76;100.00;96615.00;5040463;28;20086;-66
2023/10/14 05:50:14;;;;;;;5.38;2.10;;;;;;;15.80;100.00;96617.94;5046513;28;20041;-66
2023/10/14 05:52:43;;;;;;;6.87;2.20;;;;;;;15.77;100.00;96627.53;5037547;28;20045;-68
2023/10/14 05:55:10;;;;;;;5.82;2.55;;;;;;;15.81;100.00;96628.53;5038174;28;20055;-65
2023/10/14 05:57:39;;;;;;;7.07;2.08;;;;;;;15.70;100.00;96627.16;5039775;28;20064;-65
2023/10/14 06:00:20;;;;;;;7.82;2.00;;;;;;;15.65;100.00;96635.41;5033576;28;20038;-66
2023/10/14 06:02:53;;;;;;;;;;;;;;;15.73;100.00;96642.91;5042434;28;20048;-67
2023/10/14 06:05:31;;;;;;;4.82;1.98;;;;;;;15.77;100.00;96643.91;5028539;28;19925;-66
2023/10/14 06:08:05;;;;;;;4.03;2.00;;;;;;;15.78;100.00;96642.00;5039379;28;20041;-65
2023/10/14 06:10:41;;;;;;;5.05;1.58;;;;;;;15.80;100.00;96646.03;5033218;28;20044;-66
2023/10/14 06:13:10;;;;;;;5.05;1.80;;;;;;;15.86;100.00;96650.28;5032933;28;20046;-65
2023/10/14 06:15:41;;;;;;;3.35;1.55;;;;;;;15.88;100.00;96654.63;5035928;28;20099;-65
2023/10/14 06:18:14;;;;;;;4.20;1.58;;;;;;;15.84;100.00;96663.44;5041016;28;20670;-65
2023/10/14 06:20:42;;;;;;;6.28;1.40;;;;;;;15.90;100.00;96658.69;5031766;28;20060;-64
2023/10/14 06:23:08;;;;;;;3.88;1.50;;;;;;;15.86;100.00;96669.38;5038543;28;20427;-67
2023/10/14 06:25:36;;;;;;;6.30;1.42;;;;;;;15.91;100.00;96668.47;5040294;28;20057;-68
2023/10/14 06:28:03;;;;;;;4.63;1.30;;;;;;;15.97;100.00;96671.94;5039527;28;20040;-65
2023/10/14 06:30:30;;;;;;;5.47;1.40;;;;;;;15.99;100.00;96683.34;5043485;28;20045;-67
2023/10/14 06:33:05;;;;;;;5.05;1.52;;;;;;;15.99;100.00;96684.19;5040324;28;20052;-65
2023/10/14 06:35:33;;;;;;;4.07;1.40;;;;;;;15.98;100.00;96688.03;5040336;28;20048;-66
2023/10/14 06:38:03;;;;;;;3.80;1.30;;;;;;;16.06;100.00;96682.94;5039399;28;20037;-66
2023/10/14 06:40:36;;;;;;;2.60;1.00;;;;;;;16.00;100.00;96695.91;5037727;28;20045;-66
2023/10/14 06:43:13;;;;;;;3.95;1.48;;;;;;;16.04;100.00;96702.38;5036763;28;20500;-67
2023/10/14 06:45:40;;;;;;;4.78;1.73;;;;;;;16.08;100.00;96703.41;5038498;28;20044;-65
2023/10/14 06:48:09;;;;;;;4.30;1.40;;;;;;;16.05;100.00;96706.72;5042879;28;20124;-66
2023/10/14 06:50:42;;;;;;;4.43;1.50;;;;;;;16.05;100.00;96712.19;5037816;28;20134;-65
2023/10/14 06:53:10;;;;;;;5.00;1.23;;;;;;;15.99;100.00;96719.66;5036654;28;20042;-67
2023/10/14 06:55:39;;;;;;;3.90;1.30;;;;;;;15.94;100.00;96725.25;5036521;28;20099;-66
2023/10/14 06:58:11;;;;;;;12.57;2.63;;;;;;;15.95;100.00;96726.03;5041173;28;20072;-66
2023/10/14 07:00:40;;;;;;;2.65;1.30;;;;;;;16.18;100.00;96735.13;5036896;28;20484;-66
2023/10/14 07:03:13;;;;;;;4.47;1.20;;;;;;;16.22;100.00;96736.13;5040513;28;20049;-67
2023/10/14 07:05:48;;;;;;;5.28;1.27;;;;;;;16.22;100.00;96738.09;5040586;28;20125;-66
2023/10/14 07:08:19;;;;;;;5.43;1.27;;;;;;;16.33;100.00;96738.69;5037205;28;20045;-67
2023/10/14 07:10:47;;;;;;;3.50;1.10;;;;;;;16.47;100.00;96742.19;5033653;28;20072;-66
2023/10/14 07:13:14;;;;;;;3.20;1.40;;;;;;;16.48;100.00;96743.78;5044219;28;20091;-66
2023/10/14 07:15:42;;;;;;;4.53;1.23;;;;;;;16.51;100.00;96740.47;5038594;28;20050;-64
2023/10/14 07:18:08;;;;;;;4.03;1.05;;;;;;;16.48;100.00;96756.66;5035782;28;20099;-66
2023/10/14 07:20:35;;;;;;;4.07;1.30;;;;;;;16.44;100.00;96756.44;5044313;28;20052;-66
2023/10/14 07:23:02;;;;;;;3.15;1.27;;;;;;;16.42;100.00;96755.97;5047236;28;20077;-67
2023/10/14 07:25:34;;;;;;;2.65;0.95;;;;;;;16.35;100.00;96750.91;5032477;28;20172;-65
2023/10/14 07:28:06;;;;;;;3.53;1.33;;;;;;;16.38;100.00;96755.78;5041461;28;20738;-66
2023/10/14 07:30:34;;;;;;;6.63;1.90;;;;;;;16.31;100.00;96747.16;5045507;28;20674;-65
2023/10/14 07:33:04;;;;;;;5.20;1.10;;;;;;;16.27;100.00;96753.53;5034876;28;20734;-64
2023/10/14 07:35:31;;;;;;;7.03;1.27;;;;;;;16.30;100.00;96752.94;5044299;28;20125;-66
2023/10/14 07:37:58;;;;;;;3.15;0.90;;;;;;;16.38;100.00;96761.25;5047757;28;20033;-66
2023/10/14 07:40:30;;;;;;;5.10;1.40;;;;;;;16.47;100.00;96757.78;5050156;28;20501;-66
2023/10/14 07:43:05;;;;;;;11.20;1.80;;;;;;;16.48;100.00;96748.47;5037695;28;20063;-65
2023/10/14 07:45:35;;;;;;;2.55;0.85;;;;;;;16.46;100.00;96751.50;5044448;28;20053;-68
2023/10/14 07:48:09;;;;;;;4.20;1.02;;;;;;;16.56;100.00;96753.22;5044176;28;20041;-66
2023/10/14 07:50:47;;;;;;;2.83;1.10;;;;;;;16.55;100.00;96759.78;5045857;28;20041;-67
2023/10/14 07:53:22;;;;;;;4.20;1.50;;;;;;;16.56;100.00;96764.16;5038558;28;20131;-65
2023/10/14 07:55:52;;;;;;;4.60;1.27;;;;;;;16.52;100.00;96752.22;5043346;28;20420;-67
2023/10/14 07:58:23;;;;;;;3.55;1.20;;;;;;;16.43;100.00;96754.06;5035713;28;20037;-67
2023/10/14 08:00:53;;;;;;;6.10;1.20;;;;;;;16.46;100.00;96753.41;5039718;28;20048;-65
2023/10/14 08:03:20;;;;;;;6.32;1.20;;;;;;;16.32;100.00;96750.69;5048615;28;20123;-67
2023/10/14 08:05:49;;;;;;;2.45;1.05;;;;;;;16.33;100.00;96757.81;5039164;28;20120;-67
2023/10/14 08:08:19;;;;;;;4.75;1.20;;;;;;;16.28;100.00;96758.69;5051473;28;20131;-65
2023/10/14 08:10:48;;;;;;;5.22;1.25;;;;;;;16.42;100.00;96755.13;5040380;28;20052;-66
2023/10/14 08:13:23;;;;;;;4.38;1.30;;;;;;;16.68;100.00;96757.31;5050202;28;20044;-67
2023/10/14 08:15:51;;;;;;;3.95;0.98;;;;;;;16.97;100.00;96754.22;5039096;28;20057;-68
2023/10/14 08:18:25;;;;;;;3.50;1.20;;;;;;;17.22;100.00;96753.94;5038782;28;20041;-67
2023/10/14 08:20:55;;;;;;;3.50;1.73;;;;;;;17.33;100.00;96752.59;5037791;28;20052;-66
2023/10/14 08:23:24;;;;;;;3.20;1.27;;;;;;;17.55;100.00;96756.44;5042972;28;20052;-65
2023/10/14 08:25:54;;;;;;;4.38;1.50;;;;;;;17.63;100.00;96763.06;5038520;28;20400;-65
2023/10/14 08:28:24;;;;;;;5.03;1.50;;;;;;;17.66;100.00;96770.66;5050746;28;20037;-65
2023/10/14 08:30:51;;;;;;;3.70;0.98;;;;;;;17.72;99.83;96765.88;5042332;28;20049;-65
2023/10/14 08:33:19;;;;;;;4.10;0.90;;;;;;;17.48;100.00;96767.81;5044375;28;20043;-64
2023/10/14 08:35:48;;;;;;;3.17;0.88;;;;;;;17.42;100.00;96780.81;5047007;28;20041;-67
2023/10/14 08:38:19;;;;;;;4.90;0.98;;;;;;;17.66;100.00;96784.34;5041073;28;20037;-65
2023/10/14 08:40:49;;;;;;;3.75;1.05;;;;;;;17.98;100.00;96778.88;5033330;28;20041;-65
2023/10/14 08:43:20;;;;;;;3.15;0.93;;;;;;;18.11;99.45;96788.94;5042132;28;20044;-65
2023/10/14 08:45:51;;;;;;;2.33;0.65;;;;;;;18.13;99.40;96794.13;5048529;28;20116;-65
2023/10/14 08:48:23;;;;;;;1.70;0.70;;;;;;;18.12;100.00;96800.69;5047862;28;20045;-65
2023/10/14 08:50:56;;;;;;;2.05;0.95;;;;;;;17.88;100.00;96841.00;5040942;28;20049;-65
2023/10/14 08:53:24;;;;;;;3.92;0.80;;;;;;;16.47;100.00;96846.03;5041772;28;20040;-65
2023/10/14 08:55:57;;;;;;;1.77;0.70;;;;;;;15.70;100.00;96846.28;5043299;28;20040;-66
2023/10/14 08:58:25;;;;;;;2.22;0.77;;;;;;;15.18;100.00;96862.59;5035677;28;20040;-66
2023/10/14 09:00:53;;;;;;;2.40;0.80;;;;;;;14.87;100.00;96860.31;5030174;28;20052;-65
2023/10/14 09:03:20;;;;;;;0.85;0.50;;;;;;;14.53;100.00;96876.47;5042763;28;20048;-67
2023/10/14 09:05:47;;;;;;;2.33;0.80;;;;;;;14.43;100.00;96876.59;5042565;28;20040;-66
2023/10/14 09:08:21;;;;;;;2.90;0.85;;;;;;;14.44;100.00;96876.31;5053062;28;20048;-66
2023/10/14 09:10:52;;;;;;;1.02;0.57;;;;;;;14.26;100.00;96872.41;5037540;28;20033;-66
2023/10/14 09:13:20;;;;;;;1.35;0.70;;;;;;;14.31;100.00;96879.75;5038249;28;20103;-67
2023/10/14 09:15:49;;;;;;;2.95;1.35;;;;;;;14.26;100.00;96893.41;5033209;28;20045;-65
2023/10/14 09:18:22;;;;;;;1.70;0.77;;;;;;;14.24;100.00;96890.97;5033110;28;20094;-66
2023/10/14 09:20:56;;;;;;;1.98;0.60;;;;;;;14.18;100.00;96892.94;5042358;28;20048;-67
2023/10/14 09:23:24;;;;;;;1.30;0.73;;;;;;;14.18;100.00;96916.59;5040846;28;20048;-66
2023/10/14 09:25:53;;;;;;;2.45;0.90;;;;;;;14.28;100.00;96921.97;5041544;28;20044;-65
2023/10/14 09:28:21;;;;;;;1.77;0.90;;;;;;;14.41;100.00;96908.78;5035693;28;20059;-65
2023/10/14 09:30:51;;;;;;;1.48;0.63;;;;;;;14.36;100.00;96895.19;5041714;28;20049;-65
2023/10/14 09:33:29;;;;;;;1.90;0.60;;;;;;;14.47;100.00;96883.09;5036720;28;20601;-65
2023/10/14 09:36:02;;;;;;;0.88;0.43;;;;;;;14.39;100.00;96886.44;5048642;28;20045;-65
2023/10/14 09:38:32;;;;;;;3.33;0.60;;;;;;;14.70;100.00;96884.19;5042079;28;20667;-66
2023/10/14 09:41:04;;;;;;;1.52;0.50;;;;;;;14.54;100.00;96882.75;5038583;28;20095;-65
2023/10/14 09:43:32;;;;;;;0.77;0.45;;;;;;;14.54;100.00;96885.47;5044072;28;20794;-65
2023/10/14 09:46:03;;;;;;;1.30;0.60;;;;;;;14.52;100.00;96887.69;5042754;28;20156;-64
2023/10/14 09:48:34;;;;;;;0.95;0.60;;;;;;;14.53;100.00;96890.09;5047925;28;20037;-66
2023/10/14 09:51:03;;;;;;;0.70;0.30;;;;;;;14.51;100.00;96880.59;5047982;28;20045;-66
2023/10/14 09:53:34;;;;;;;0.65;0.30;;;;;;;14.65;100.00;96886.16;5049029;28;20059;-66
2023/10/14 09:56:07;;;;;;;1.15;0.60;;;;;;;14.56;100.00;96881.34;5044475;28;20041;-66
2023/10/14 09:58:41;;;;;;;0.55;0.40;;;;;;;14.62;100.00;96879.38;5050824;28;20111;-64
2023/10/14 10:01:12;;;;;;;0.57;0.32;;;;;;;14.58;100.00;96883.78;5040235;28;20053;-64
2023/10/14 10:03:44;;;;;;;;;;;;;;;14.68;100.00;96893.75;5051609;28;20508;-67
2023/10/14 10:06:15;;;;;;;0.80;0.40;;;;;;;14.79;100.00;96883.59;5048956;28;20028;-66
2023/10/14 10:09:24;;;;;;;2.03;0.33;;;;;;;14.60;100.00;96887.06;5043727;28;20094;-66
2023/10/14 10:11:55;;;;;;;0.60;0.40;;;;;;;14.73;100.00;96882.81;5042102;28;20068;-66
2023/10/14 10:14:24;;;;;;;1.98;0.77;;;;;;;14.54;100.00;96885.47;5048687;28;20040;-64
2023/10/14 10:16:52;;;;;;;1.23;0.50;;;;;;;14.57;100.00;96882.97;5047215;28;20511;-65
2023/10/14 10:19:24;;;;;;;0.88;0.55;;;;;;;14.57;100.00;96887.63;5043880;28;20179;-65
2023/10/14 10:22:09;;;;;;;;;;;;;;;14.58;100.00;96883.78;5049731;28;20084;-65
2023/10/14 10:24:41;;;;;;;1.27;0.68;;;;;;;14.62;100.00;96881.28;5040621;28;19952;-65
2023/10/14 10:27:10;;;;;;;1.38;0.60;;;;;;;14.60;100.00;96878.06;5039389;28;20107;-64
2023/10/14 10:29:51;;;;;;;0.95;0.52;;;;;;;14.54;100.00;96871.84;5044998;28;20309;-64
2023/10/14 10:32:22;;;;;;;1.25;0.73;;;;;;;14.54;100.00;96883.56;5045594;28;20520;-66
2023/10/14 10:35:04;;;;;;;1.15;0.50;;;;;;;14.36;100.00;96887.03;5050781;28;20067;-64
2023/10/14 10:37:41;;;;;;;0.88;0.60;;;;;;;14.44;100.00;96881.78;5044399;28;20040;-66
2023/10/14 10:40:11;;;;;;;1.08;0.40;;;;;;;14.43;100.00;96879.31;5040031;28;20479;-66
2023/10/14 10:42:47;;;;;;;1.25;0.50;;;;;;;14.41;100.00;96881.53;5043535;28;20044;-64
2023/10/14 10:45:20;;;;;;;2.67;0.68;;;;;;;14.33;100.00;96882.97;5051019;28;20049;-65
2023/10/14 10:47:55;;;;;;;0.65;0.30;;;;;;;14.23;100.00;96883.88;5053864;28;20047;-64
2023/10/14 10:50:34;;;;;;;4.10;0.80;;;;;;;14.22;100.00;96886.91;5046969;28;20127;-65
2023/10/14 10:53:10;;;;;;;1.75;0.50;;;;;;;14.01;100.00;96882.47;5040238;28;20065;-66
2023/10/14 10:55:41;;;;;;;2.15;0.68;;;;;;;13.86;100.00;96874.44;5036401;28;20106;-65
2023/10/14 10:58:11;;;;;;;3.33;0.70;;;;;;;13.84;100.00;96879.34;5047722;28;20602;-65
2023/10/14 11:00:40;;;;;;;2.33;0.70;;;;;;;13.77;100.00;96868.78;5048816;28;20037;-64
2023/10/14 11:03:07;;;;;;;1.48;0.65;;;;;;;13.85;100.00;96881.78;5035305;28;20045;-65
2023/10/14 11:05:35;;;;;;;0.73;0.63;;;;;;;13.74;100.00;96883.78;5053583;28;20063;-66
2023/10/14 11:08:05;;;;;;;2.05;0.80;;;;;;;13.52;100.00;96887.75;5046023;28;20041;-66
2023/10/14 11:10:34;;;;;;;1.73;0.77;;;;;;;13.53;100.00;96896.75;5043176;28;20036;-67
2023/10/14 11:13:01;;;;;;;2.22;0.80;;;;;;;13.56;100.00;96898.09;5036636;28;20036;-65
2023/10/14 11:15:31;;;;;;;1.23;0.60;;;;;;;13.57;100.00;96896.97;5053510;28;20044;-64
2023/10/14 11:17:59;;;;;;;1.20;0.55;;;;;;;13.32;100.00;96891.41;5036215;28;20045;-66
2023/10/14 11:20:47;;;;;;;1.17;0.50;;;;;;;13.27;100.00;96881.38;5044336;28;20039;-66
2023/10/14 11:23:16;;;;;;;1.95;0.70;;;;;;;13.30;100.00;96890.88;5042228;28;20119;-64
2023/10/14 11:25:46;;;;;;;1.00;0.60;;;;;;;13.14;100.00;96885.53;5041167;28;20037;-66
2023/10/14 11:28:14;;;;;;;0.80;0.47;;;;;;;13.24;100.00;96900.94;5039524;28;20073;-66
2023/10/14 11:30:42;;;;;;;1.83;0.70;;;;;;;13.12;100.00;96895.06;5038465;28;20125;-64
2023/10/14 11:33:14;;;;;;;1.73;0.50;;;;;;;13.18;100.00;96891.22;5042230;28;20056;-64
2023/10/14 11:35:41;;;;;;;1.98;0.75;;;;;;;13.09;100.00;96893.69;5038740;28;20048;-66
2023/10/14 11:38:12;;;;;;;0.82;0.57;;;;;;;13.19;100.00;96898.28;5045044;28;20055;-65
2023/10/14 11:40:45;;;;;;;0.65;0.40;;;;;;;13.30;100.00;96895.50;5032860;28;20041;-66
2023/10/14 11:43:11;;;;;;;1.08;0.43;;;;;;;13.44;100.00;96901.94;5037782;28;20143;-65
2023/10/14 11:45:45;;;;;;;0.40;0.40;;;;;;;13.44;100.00;96904.66;5048224;28;20044;-63
2023/10/14 11:48:30;;;;;;;0.45;0.40;;;;;;;13.53;100.00;96894.03;5039827;28;20504;-63
2023/10/14 11:51:00;;;;;;;0.50;0.40;;;;;;;13.70;100.00;96898.22;5040906;28;20044;-61
2023/10/14 11:53:29;;;;;;;1.33;0.50;;;;;;;13.68;100.00;96895.00;5041665;28;20044;-60
2023/10/14 11:55:59;;;;;;;3.85;0.50;;;;;;;13.72;100.00;96902.31;5042016;28;20045;-61
2023/10/14 11:58:31;;;;;;;0.95;0.57;;;;;;;13.85;100.00;96900.84;5044614;28;20048;-60
2023/10/14 12:00:59;;;;;;;0.68;0.40;;;;;;;13.95;100.00;96894.50;5037664;28;20041;-60
2023/10/14 12:03:26;;;;;;;1.48;0.52;;;;;;;13.84;100.00;96893.78;5042215;28;20044;-60
2023/10/14 12:05:59;;;;;;;0.70;0.50;;;;;;;13.84;100.00;96898.41;5041019;28;20071;-61